createdAt,value
2022-12-25T00:02:15.938Z,10.60
2022-12-25T00:04:42.491Z,10.32
2022-12-25T00:07:08.949Z,11.20
2022-12-25T00:09:35.455Z,10.68
2022-12-25T00:12:01.948Z,11.90
2022-12-25T00:14:28.401Z,11.95
2022-12-25T00:16:54.994Z,11.80
2022-12-25T00:19:21.476Z,10.52
2022-12-25T00:21:47.956Z,11.05
2022-12-25T00:24:14.399Z,10.02
2022-12-25T00:26:40.986Z,8.95
2022-12-25T00:29:07.460Z,9.23
2022-12-25T00:31:35.163Z,10.05
2022-12-25T00:34:01.651Z,11.27
2022-12-25T00:36:28.165Z,12.00
2022-12-25T00:38:54.738Z,13.45
2022-12-25T00:41:42.406Z,13.25
2022-12-25T00:44:11.306Z,13.88
2022-12-25T00:46:37.878Z,13.55
2022-12-25T00:49:04.453Z,13.07
2022-12-25T00:51:31.027Z,13.80
2022-12-25T00:53:57.688Z,12.95
2022-12-25T00:56:24.192Z,12.73
2022-12-25T00:58:50.799Z,12.10
2022-12-25T01:01:18.068Z,11.75
2022-12-25T01:03:44.807Z,12.65
2022-12-25T01:06:12.811Z,12.48
2022-12-25T01:09:03.897Z,11.80
2022-12-25T01:11:30.948Z,10.77
2022-12-25T01:13:57.573Z,11.57
2022-12-25T01:16:24.184Z,11.93
2022-12-25T01:18:50.768Z,10.48
2022-12-25T01:21:21.044Z,10.52
2022-12-25T01:23:49.011Z,12.57
2022-12-25T01:26:16.485Z,11.45
2022-12-25T01:28:43.030Z,12.15
2022-12-25T01:31:12.695Z,12.18
2022-12-25T01:33:40.954Z,12.00
2022-12-25T01:36:15.726Z,11.82
2022-12-25T01:38:43.327Z,12.20
2022-12-25T01:41:11.777Z,11.45
2022-12-25T01:44:05.927Z,11.05
2022-12-25T01:46:33.113Z,11.20
2022-12-25T01:49:03.984Z,11.02
2022-12-25T01:51:43.300Z,11.30
2022-12-25T01:54:15.194Z,10.50
2022-12-25T01:56:43.773Z,11.18
2022-12-25T01:59:12.271Z,11.27
2022-12-25T02:01:38.910Z,12.05
2022-12-25T02:04:13.256Z,12.18
2022-12-25T02:06:39.734Z,11.52
2022-12-25T02:09:06.410Z,12.40
2022-12-25T02:11:51.454Z,13.20
2022-12-25T02:14:18.215Z,12.90
2022-12-25T02:16:57.015Z,13.18
2022-12-25T02:20:13.030Z,13.25
2022-12-25T02:23:04.030Z,12.70
2022-12-25T02:25:48.820Z,12.10
2022-12-25T02:28:45.841Z,11.85
2022-12-25T02:31:17.756Z,12.23
2022-12-25T02:34:03.796Z,13.05
2022-12-25T02:36:51.776Z,13.27
2022-12-25T02:39:44.089Z,13.18
2022-12-25T02:42:17.878Z,13.65
2022-12-25T02:45:07.929Z,13.48
2022-12-25T02:47:55.008Z,13.77
2022-12-25T02:50:41.599Z,14.65
2022-12-25T02:53:28.108Z,13.40
2022-12-25T02:56:15.276Z,14.05
2022-12-25T02:59:01.422Z,14.60
2022-12-25T03:01:51.677Z,13.68
2022-12-25T03:04:40.459Z,13.63
2022-12-25T03:07:15.832Z,15.07
2022-12-25T03:10:07.987Z,14.55
2022-12-25T03:13:04.278Z,15.40
2022-12-25T03:15:51.268Z,15.15
2022-12-25T03:18:24.248Z,13.57
2022-12-25T03:21:11.728Z,15.05
2022-12-25T03:24:00.483Z,15.27
2022-12-25T03:26:46.019Z,15.00
2022-12-25T03:29:32.948Z,14.52
2022-12-25T03:32:10.215Z,15.43
2022-12-25T03:35:01.030Z,16.08
2022-12-25T03:37:43.606Z,15.10
2022-12-25T03:40:49.226Z,16.30
2022-12-25T03:43:40.578Z,14.73
2022-12-25T03:46:31.837Z,15.98
2022-12-25T03:49:25.799Z,14.90
2022-12-25T03:52:12.995Z,14.80
2022-12-25T03:55:00.109Z,15.55
2022-12-25T03:57:45.357Z,15.52
2022-12-25T04:00:31.112Z,13.88
2022-12-25T04:03:16.234Z,15.85
2022-12-25T04:06:01.423Z,16.33
2022-12-25T04:08:46.401Z,14.55
2022-12-25T04:11:31.533Z,15.75
2022-12-25T04:14:16.718Z,15.35
2022-12-25T04:17:01.821Z,15.88
2022-12-25T04:19:46.913Z,15.27
2022-12-25T04:22:31.885Z,14.32
2022-12-25T04:25:17.047Z,15.32
2022-12-25T04:28:02.275Z,14.25
2022-12-25T04:30:47.450Z,14.82
2022-12-25T04:33:32.609Z,15.75
2022-12-25T04:36:14.291Z,13.77
2022-12-25T04:38:41.282Z,14.43
2022-12-25T04:41:10.605Z,14.65
2022-12-25T04:43:37.780Z,16.27
2022-12-25T04:46:05.377Z,15.52
2022-12-25T04:48:34.740Z,16.15
2022-12-25T04:51:16.227Z,15.43
2022-12-25T04:53:43.251Z,14.82
2022-12-25T04:56:10.124Z,14.18
2022-12-25T04:58:37.087Z,14.70
2022-12-25T05:01:04.601Z,15.00
2022-12-25T05:03:32.005Z,14.23
2022-12-25T05:05:58.844Z,15.05
2022-12-25T05:08:25.311Z,14.40
2022-12-25T05:10:51.856Z,14.65
2022-12-25T05:13:18.335Z,16.13
2022-12-25T05:15:45.073Z,15.43
2022-12-25T05:18:11.629Z,14.70
2022-12-25T05:20:40.203Z,13.88
2022-12-25T05:23:07.276Z,14.98
2022-12-25T05:25:33.772Z,14.18
2022-12-25T05:28:00.235Z,16.10
2022-12-25T05:30:26.849Z,15.55
2022-12-25T05:32:53.335Z,15.82
2022-12-25T05:35:21.041Z,15.75
2022-12-25T05:37:47.641Z,15.45
2022-12-25T05:40:14.187Z,15.75
2022-12-25T05:42:40.671Z,13.40
2022-12-25T05:45:07.659Z,15.52
2022-12-25T05:47:34.176Z,15.85
2022-12-25T05:50:00.636Z,14.05
2022-12-25T05:52:31.459Z,14.63
2022-12-25T05:54:57.916Z,14.38
2022-12-25T05:57:24.520Z,13.35
2022-12-25T05:59:50.975Z,12.85
2022-12-25T06:02:17.547Z,12.23
2022-12-25T06:04:44.047Z,12.32
2022-12-25T06:07:10.594Z,13.20
2022-12-25T06:09:37.148Z,13.15
2022-12-25T06:12:04.318Z,13.30
2022-12-25T06:14:30.801Z,12.77
2022-12-25T06:16:57.381Z,13.30
2022-12-25T06:19:24.104Z,15.05
2022-12-25T06:21:54.492Z,14.60
2022-12-25T06:24:22.196Z,14.73
2022-12-25T06:26:49.405Z,14.15
2022-12-25T06:29:15.949Z,15.13
2022-12-25T06:31:42.531Z,14.70
2022-12-25T06:34:09.127Z,16.38
2022-12-25T06:36:38.107Z,15.02
2022-12-25T06:39:04.672Z,15.25
2022-12-25T06:41:31.180Z,15.18
2022-12-25T06:43:59.655Z,14.35
2022-12-25T06:46:28.897Z,14.07
2022-12-25T06:48:56.741Z,13.57
2022-12-25T06:51:25.413Z,13.93
2022-12-25T06:53:52.672Z,14.10
2022-12-25T06:56:21.889Z,12.25
2022-12-25T06:58:50.760Z,13.20
2022-12-25T07:01:21.397Z,12.48
2022-12-25T07:03:51.326Z,12.68
2022-12-25T07:06:17.823Z,13.50
2022-12-25T07:08:44.352Z,12.93
2022-12-25T07:11:10.976Z,12.20
2022-12-25T07:13:37.474Z,11.15
2022-12-25T07:16:05.497Z,12.05
2022-12-25T07:18:32.714Z,11.73
2022-12-25T07:21:00.390Z,12.25
2022-12-25T07:23:27.210Z,12.57
2022-12-25T07:25:58.736Z,12.98
2022-12-25T07:28:26.259Z,12.05
2022-12-25T07:30:53.191Z,11.50
2022-12-25T07:33:20.094Z,13.65
2022-12-25T07:35:46.710Z,13.48
2022-12-25T07:38:13.237Z,13.65
2022-12-25T07:40:39.801Z,14.30
2022-12-25T07:43:06.281Z,14.88
2022-12-25T07:45:32.819Z,15.13
2022-12-25T07:48:04.921Z,16.45
2022-12-25T07:50:32.233Z,15.52
2022-12-25T07:53:02.467Z,15.20
2022-12-25T07:55:28.973Z,15.10
2022-12-25T07:57:55.505Z,16.33
2022-12-25T08:00:22.286Z,15.52
2022-12-25T08:02:51.919Z,14.52
2022-12-25T08:05:18.636Z,14.13
2022-12-25T08:07:45.103Z,15.15
2022-12-25T08:10:11.719Z,14.48
2022-12-25T08:12:38.206Z,15.25
2022-12-25T08:15:05.151Z,13.98
2022-12-25T08:17:31.666Z,14.15
2022-12-25T08:19:58.152Z,13.15
2022-12-25T08:22:24.637Z,13.60
2022-12-25T08:24:51.117Z,13.30
2022-12-25T08:27:17.592Z,12.18
2022-12-25T08:29:44.992Z,12.32
2022-12-25T08:32:11.579Z,13.70
2022-12-25T08:34:38.712Z,13.85
2022-12-25T08:37:05.354Z,12.52
2022-12-25T08:39:31.995Z,13.48
2022-12-25T08:41:58.436Z,11.90
2022-12-25T08:44:24.892Z,10.55
2022-12-25T08:46:51.429Z,11.45
2022-12-25T08:49:18.009Z,9.63
2022-12-25T08:51:45.699Z,9.90
2022-12-25T08:54:15.492Z,9.60
2022-12-25T08:56:41.964Z,9.55
2022-12-25T08:59:08.468Z,10.05
2022-12-25T09:01:35.160Z,9.50
2022-12-25T09:04:01.729Z,8.55
2022-12-25T09:06:28.300Z,8.75
2022-12-25T09:08:54.776Z,8.57
2022-12-25T09:11:21.535Z,7.97
2022-12-25T09:13:49.203Z,8.00
2022-12-25T09:16:21.955Z,7.90
2022-12-25T09:18:49.246Z,8.15
2022-12-25T09:21:16.790Z,8.82
2022-12-25T09:23:43.564Z,8.45
2022-12-25T09:26:13.227Z,8.10
2022-12-25T09:28:43.726Z,7.45
2022-12-25T09:31:13.338Z,7.70
2022-12-25T09:33:39.913Z,7.40
2022-12-25T09:36:08.564Z,7.75
2022-12-25T09:38:36.031Z,7.82
2022-12-25T09:41:04.144Z,8.32
2022-12-25T09:43:37.708Z,8.95
2022-12-25T09:46:06.076Z,8.45
2022-12-25T09:48:34.834Z,8.23
2022-12-25T09:51:14.767Z,9.10
2022-12-25T09:53:51.827Z,9.07
2022-12-25T09:56:27.725Z,9.25
2022-12-25T09:58:54.956Z,9.55
2022-12-25T10:01:33.880Z,9.20
2022-12-25T10:04:12.436Z,8.65
2022-12-25T10:07:16.645Z,9.18
2022-12-25T10:09:56.757Z,8.77
2022-12-25T10:12:31.921Z,8.88
2022-12-25T10:15:19.056Z,9.13
2022-12-25T10:17:57.663Z,8.38
2022-12-25T10:20:41.089Z,9.00
2022-12-25T10:23:17.763Z,8.95
2022-12-25T10:25:45.226Z,8.25
2022-12-25T10:28:23.585Z,8.48
2022-12-25T10:30:52.481Z,7.80
2022-12-25T10:33:19.141Z,8.57
2022-12-25T10:35:46.032Z,8.55
2022-12-25T10:38:19.138Z,8.52
2022-12-25T10:41:01.120Z,8.73
2022-12-25T10:43:42.265Z,8.32
2022-12-25T10:46:14.452Z,8.18
2022-12-25T10:49:01.009Z,8.23
2022-12-25T10:51:36.325Z,7.53
2022-12-25T10:54:19.310Z,7.40
2022-12-25T10:57:03.817Z,8.02
2022-12-25T10:59:35.827Z,8.32
2022-12-25T11:02:15.643Z,7.93
2022-12-25T11:04:42.561Z,7.85
2022-12-25T11:07:23.145Z,7.80
2022-12-25T11:09:57.817Z,8.73
2022-12-25T11:12:42.054Z,7.75
2022-12-25T11:15:38.179Z,8.63
2022-12-25T11:18:21.231Z,7.82
2022-12-25T11:20:56.656Z,8.07
2022-12-25T11:23:25.329Z,8.55
2022-12-25T11:26:10.146Z,8.27
2022-12-25T11:28:38.598Z,8.55
2022-12-25T11:31:10.809Z,8.25
2022-12-25T11:33:44.943Z,9.07
2022-12-25T11:36:40.755Z,8.45
2022-12-25T11:39:35.425Z,8.43
2022-12-25T11:42:11.580Z,7.90
2022-12-25T11:44:50.214Z,8.32
2022-12-25T11:47:26.072Z,8.45
2022-12-25T11:52:32.234Z,8.18
2022-12-25T11:55:19.272Z,8.82
2022-12-25T11:57:51.265Z,8.38
2022-12-25T12:00:18.811Z,7.97
2022-12-25T12:02:59.622Z,7.85
2022-12-25T12:05:33.705Z,7.38
2022-12-25T12:08:02.961Z,8.18
2022-12-25T12:10:51.258Z,8.07
2022-12-25T12:13:51.695Z,8.25
2022-12-25T12:16:18.705Z,8.55
2022-12-25T12:18:50.415Z,8.65
2022-12-25T12:21:27.367Z,8.65
2022-12-25T12:24:07.241Z,8.43
2022-12-25T12:26:40.977Z,7.88
2022-12-25T12:29:22.065Z,9.13
2022-12-25T12:31:50.985Z,8.50
2022-12-25T12:34:30.440Z,9.27
2022-12-25T12:37:03.971Z,9.50
2022-12-25T12:39:36.769Z,9.75
2022-12-25T12:42:15.858Z,8.93
2022-12-25T12:44:43.000Z,9.05
2022-12-25T12:47:27.716Z,9.18
2022-12-25T12:49:59.317Z,9.55
2022-12-25T12:52:35.639Z,9.50
2022-12-25T12:55:06.565Z,9.63
2022-12-25T12:57:39.592Z,9.73
2022-12-25T13:00:18.162Z,9.52
2022-12-25T13:03:01.273Z,9.27
2022-12-25T13:05:55.672Z,9.32
2022-12-25T13:08:59.223Z,9.05
2022-12-25T13:11:31.344Z,9.00
2022-12-25T13:14:01.997Z,8.93
2022-12-25T13:16:40.857Z,8.95
2022-12-25T13:19:28.911Z,8.35
2022-12-25T13:21:58.944Z,8.93
2022-12-25T13:24:28.089Z,9.80
2022-12-25T13:26:54.968Z,8.88
2022-12-25T13:29:30.720Z,9.70
2022-12-25T13:34:39.615Z,10.27
2022-12-25T13:37:09.585Z,10.00
2022-12-25T13:39:39.414Z,9.32
2022-12-25T13:42:09.505Z,10.50
2022-12-25T13:44:46.814Z,10.38
2022-12-25T13:47:38.267Z,9.65
2022-12-25T13:50:21.614Z,10.25
2022-12-25T13:52:48.196Z,8.65
2022-12-25T13:55:22.309Z,9.70
2022-12-25T13:57:55.880Z,8.65
2022-12-25T14:00:33.483Z,9.07
2022-12-25T14:03:00.551Z,8.98
2022-12-25T14:05:37.873Z,8.32
2022-12-25T14:08:24.268Z,8.30
2022-12-25T14:10:53.695Z,8.30
2022-12-25T14:13:30.549Z,8.25
2022-12-25T14:15:57.955Z,8.68
2022-12-25T14:18:25.239Z,8.55
2022-12-25T14:21:08.119Z,8.10
2022-12-25T14:23:44.127Z,8.75
2022-12-25T14:26:22.335Z,9.10
2022-12-25T14:28:51.783Z,8.82
2022-12-25T14:31:19.834Z,8.15
2022-12-25T14:33:47.154Z,8.50
2022-12-25T14:36:15.013Z,8.60
2022-12-25T14:38:43.974Z,7.82
2022-12-25T14:41:33.563Z,8.98
2022-12-25T14:44:03.088Z,7.97
2022-12-25T14:46:31.899Z,7.72
2022-12-25T14:49:02.839Z,8.05
2022-12-25T14:51:31.179Z,7.22
2022-12-25T14:54:04.138Z,6.93
2022-12-25T14:56:39.221Z,7.07
2022-12-25T14:59:11.576Z,7.70
2022-12-25T15:01:41.328Z,7.40
2022-12-25T15:04:14.575Z,7.88
2022-12-25T15:06:59.868Z,6.70
2022-12-25T15:09:33.585Z,7.07
2022-12-25T15:12:00.139Z,7.55
2022-12-25T15:14:26.915Z,7.60
2022-12-25T15:16:57.303Z,7.70
2022-12-25T15:19:31.756Z,7.50
2022-12-25T15:22:01.957Z,7.55
2022-12-25T15:24:28.445Z,6.45
2022-12-25T15:30:14.203Z,6.82
2022-12-25T15:32:33.020Z,7.18
2022-12-25T15:34:59.561Z,7.00
2022-12-25T15:37:26.077Z,6.18
2022-12-25T15:39:52.712Z,6.60
2022-12-25T15:42:22.916Z,6.95
2022-12-25T15:44:50.123Z,7.13
2022-12-25T15:47:20.048Z,6.88
2022-12-25T15:49:46.745Z,6.97
2022-12-25T15:52:16.740Z,6.63
2022-12-25T15:54:43.408Z,6.45
2022-12-25T15:57:22.308Z,6.10
2022-12-25T15:59:48.913Z,5.82
2022-12-25T16:02:18.863Z,6.40
2022-12-25T16:04:45.674Z,6.20
2022-12-25T16:07:21.716Z,6.70
2022-12-25T16:09:48.178Z,7.18
2022-12-25T16:12:14.777Z,7.00
2022-12-25T16:14:41.358Z,8.20
2022-12-25T16:17:07.910Z,8.70
2022-12-25T16:19:34.395Z,8.07
2022-12-25T16:22:00.917Z,8.77
2022-12-25T16:24:27.440Z,8.30
2022-12-25T16:26:53.961Z,7.80
2022-12-25T16:29:20.428Z,9.38
2022-12-25T16:31:46.963Z,8.27
2022-12-25T16:34:13.458Z,8.23
2022-12-25T16:36:40.197Z,8.55
2022-12-25T16:39:06.760Z,8.90
2022-12-25T16:41:33.312Z,10.50
2022-12-25T16:44:06.713Z,40.78
2022-12-25T16:46:33.197Z,13.43
2022-12-25T16:48:59.889Z,11.20
2022-12-25T16:51:26.359Z,9.98
2022-12-25T16:53:53.465Z,10.27
2022-12-25T16:56:20.748Z,9.52
2022-12-25T16:58:47.966Z,8.68
2022-12-25T17:01:17.435Z,8.98
2022-12-25T17:03:44.585Z,9.32
2022-12-25T17:06:20.753Z,9.23
2022-12-25T17:08:47.601Z,8.15
2022-12-25T17:11:15.442Z,9.82
2022-12-25T17:13:46.468Z,8.73
2022-12-25T17:16:34.483Z,9.40
2022-12-25T17:19:04.353Z,10.68
2022-12-25T17:21:35.041Z,9.32
2022-12-25T17:24:03.967Z,11.15
2022-12-25T17:26:31.862Z,34.97
2022-12-25T17:28:58.818Z,144.52
2022-12-25T17:31:25.387Z,80.43
2022-12-25T17:33:52.029Z,35.63
2022-12-25T17:36:21.676Z,26.65
2022-12-25T17:38:48.761Z,19.20
2022-12-25T17:41:17.209Z,17.48
2022-12-25T17:43:45.744Z,16.17
2022-12-25T17:46:17.864Z,15.07
2022-12-25T17:48:45.277Z,13.57
2022-12-25T17:51:16.109Z,12.65
2022-12-25T17:53:45.276Z,12.25
2022-12-25T17:56:12.892Z,11.63
2022-12-25T17:58:39.462Z,14.13
2022-12-25T18:01:16.403Z,14.38
2022-12-25T18:03:44.934Z,11.82
2022-12-25T18:06:15.508Z,11.77
2022-12-25T18:08:43.675Z,12.20
2022-12-25T18:11:15.389Z,11.05
2022-12-25T18:13:45.059Z,10.60
2022-12-25T18:16:13.166Z,11.23
2022-12-25T18:18:40.683Z,14.73
2022-12-25T18:21:08.299Z,30.75
2022-12-25T18:23:36.083Z,20.35
2022-12-25T18:26:05.176Z,14.43
2022-12-25T18:28:31.991Z,14.65
2022-12-25T18:30:58.973Z,12.40
2022-12-25T18:33:26.293Z,12.90
2022-12-25T18:35:58.097Z,12.32
2022-12-25T18:38:24.876Z,10.85
2022-12-25T18:40:51.717Z,12.18
2022-12-25T18:43:18.262Z,11.57
2022-12-25T18:45:44.796Z,12.60
2022-12-25T18:48:11.424Z,12.70
2022-12-25T18:50:40.320Z,13.30
2022-12-25T18:53:10.125Z,12.98
2022-12-25T18:55:36.635Z,13.27
2022-12-25T18:58:03.240Z,21.52
2022-12-25T19:00:29.895Z,15.15
2022-12-25T19:02:58.677Z,15.13
2022-12-25T19:05:25.481Z,26.70
2022-12-25T19:07:51.979Z,14.50
2022-12-25T19:10:18.634Z,37.20
2022-12-25T19:12:48.171Z,14.82
2022-12-25T19:15:14.762Z,47.80
2022-12-25T19:17:41.476Z,21.15
2022-12-25T19:20:08.644Z,22.98
2022-12-25T19:22:35.114Z,14.23
2022-12-25T19:25:01.714Z,15.43
2022-12-25T19:27:28.222Z,11.15
2022-12-25T19:29:54.690Z,29.25
2022-12-25T19:32:21.240Z,13.65
2022-12-25T19:34:47.692Z,13.07
2022-12-25T19:37:15.150Z,12.43
2022-12-25T19:39:46.671Z,12.27
2022-12-25T19:42:14.976Z,12.93
2022-12-25T19:44:41.868Z,9.40
2022-12-25T19:47:09.759Z,11.65
2022-12-25T19:49:40.683Z,11.32
2022-12-25T19:52:07.451Z,11.40
2022-12-25T19:54:34.021Z,10.57
2022-12-25T19:57:00.516Z,9.63
2022-12-25T19:59:30.624Z,7.18
2022-12-25T20:01:57.179Z,11.82
2022-12-25T20:04:23.852Z,9.43
2022-12-25T20:06:50.362Z,7.20
2022-12-25T20:09:21.542Z,7.47
2022-12-25T20:11:48.820Z,8.38
2022-12-25T20:14:16.502Z,7.80
2022-12-25T20:16:44.043Z,8.13
2022-12-25T20:19:12.524Z,9.02
2022-12-25T20:21:39.047Z,8.93
2022-12-25T20:24:06.574Z,10.05
2022-12-25T20:26:33.110Z,9.35
2022-12-25T20:28:59.650Z,10.10
2022-12-25T20:31:29.795Z,8.57
2022-12-25T20:33:58.018Z,9.35
2022-12-25T20:36:24.678Z,10.05
2022-12-25T20:38:51.783Z,10.05
2022-12-25T20:41:28.055Z,8.75
2022-12-25T20:43:55.572Z,10.43
2022-12-25T20:46:22.494Z,11.38
2022-12-25T20:48:49.162Z,11.10
2022-12-25T20:51:19.793Z,10.07
2022-12-25T20:53:47.594Z,11.25
2022-12-25T20:56:16.495Z,10.43
2022-12-25T20:58:43.676Z,11.07
2022-12-25T21:01:13.509Z,11.40
2022-12-25T21:03:40.769Z,12.65
2022-12-25T21:06:08.680Z,11.98
2022-12-25T21:08:36.498Z,11.88
2022-12-25T21:11:04.524Z,11.30
2022-12-25T21:13:42.553Z,10.85
2022-12-25T21:16:16.681Z,11.63
2022-12-25T21:18:43.303Z,11.55
2022-12-25T21:21:10.287Z,11.50
2022-12-25T21:23:38.511Z,12.43
2022-12-25T21:26:19.283Z,11.95
2022-12-25T21:28:48.019Z,11.80
2022-12-25T21:31:14.778Z,12.98
2022-12-25T21:33:53.698Z,13.20
2022-12-25T21:36:32.302Z,13.88
2022-12-25T21:39:01.233Z,11.45
2022-12-25T21:41:29.442Z,13.90
2022-12-25T21:43:56.406Z,12.93
2022-12-25T21:46:23.271Z,12.70
2022-12-25T21:48:50.049Z,12.80
2022-12-25T21:51:38.550Z,14.13
2022-12-25T21:54:06.297Z,14.85
2022-12-25T21:56:41.320Z,14.05
2022-12-25T21:59:12.114Z,14.07
2022-12-25T22:01:38.779Z,14.13
2022-12-25T22:04:07.324Z,14.35
2022-12-25T22:06:52.962Z,14.82
2022-12-25T22:09:20.187Z,17.13
2022-12-25T22:12:05.705Z,15.55
2022-12-25T22:14:54.249Z,14.05
2022-12-25T22:17:44.201Z,15.93
2022-12-25T22:20:14.034Z,14.52
2022-12-25T22:22:40.546Z,15.23
2022-12-25T22:25:09.030Z,16.27
2022-12-25T22:27:38.060Z,15.48
2022-12-25T22:30:17.304Z,16.45
2022-12-25T22:32:44.476Z,17.52
2022-12-25T22:35:12.429Z,16.73
2022-12-25T22:37:40.182Z,16.02
2022-12-25T22:40:07.796Z,16.17
2022-12-25T22:42:34.363Z,16.95
2022-12-25T22:45:00.962Z,15.85
2022-12-25T22:47:27.808Z,16.38
2022-12-25T22:49:54.361Z,16.73
2022-12-25T22:52:20.919Z,16.55
2022-12-25T22:54:47.408Z,15.80
2022-12-25T22:57:13.894Z,15.23
2022-12-25T22:59:40.376Z,16.80
2022-12-25T23:02:06.986Z,16.50
2022-12-25T23:04:33.806Z,16.40
2022-12-25T23:07:00.304Z,16.88
2022-12-25T23:09:29.924Z,15.88
2022-12-25T23:11:57.945Z,17.15
2022-12-25T23:14:40.292Z,17.70
2022-12-25T23:17:30.775Z,16.65
2022-12-25T23:20:17.425Z,15.68
2022-12-25T23:23:02.555Z,18.88
2022-12-25T23:25:48.640Z,17.67
2022-12-25T23:28:35.156Z,15.80
2022-12-25T23:31:01.831Z,16.90
2022-12-25T23:33:28.374Z,15.80
2022-12-25T23:35:54.900Z,16.05
2022-12-25T23:38:21.371Z,16.27
2022-12-25T23:40:47.972Z,16.33
2022-12-25T23:43:14.566Z,14.95
2022-12-25T23:45:41.072Z,14.60
2022-12-25T23:48:07.539Z,14.75
2022-12-25T23:50:34.081Z,15.77
2022-12-25T23:53:00.570Z,14.90
2022-12-25T23:55:27.114Z,15.23
2022-12-25T23:57:53.611Z,15.18
